createdAt,value
2023-03-31T00:00:04.174Z,541.7
2023-03-31T00:01:06.034Z,541.3
2023-03-31T00:02:07.894Z,541.6
2023-03-31T00:03:10.864Z,541.9
2023-03-31T00:04:14.471Z,541.9
2023-03-31T00:05:16.625Z,541.8
2023-03-31T00:06:19.784Z,541.9
2023-03-31T00:07:21.641Z,541.6
2023-03-31T00:08:23.389Z,541.6
2023-03-31T00:09:25.240Z,541.6
2023-03-31T00:10:27.185Z,541.4
2023-03-31T00:11:29.059Z,541.4
2023-03-31T00:12:30.986Z,541.1
2023-03-31T00:13:32.734Z,541.2
2023-03-31T00:14:34.600Z,541.6
2023-03-31T00:15:36.543Z,541.7
2023-03-31T00:16:38.566Z,541.8
2023-03-31T00:17:40.897Z,542
2023-03-31T00:18:42.738Z,541.9
2023-03-31T00:19:44.555Z,542
2023-03-31T00:20:46.504Z,541.8
2023-03-31T00:21:48.358Z,542
2023-03-31T00:22:50.209Z,542.1
2023-03-31T00:23:51.976Z,541.9
2023-03-31T00:24:53.799Z,541.9
2023-03-31T00:25:55.732Z,541.9
2023-03-31T00:26:57.665Z,542
2023-03-31T00:27:59.454Z,542.7
2023-03-31T00:29:01.337Z,542.7
2023-03-31T00:30:03.164Z,542.3
2023-03-31T00:31:05.106Z,542
2023-03-31T00:32:07.300Z,542
2023-03-31T00:33:09.453Z,542
2023-03-31T00:34:11.401Z,542.4
2023-03-31T00:35:13.327Z,542.3
2023-03-31T00:36:15.296Z,542.8
2023-03-31T00:37:17.240Z,542.4
2023-03-31T00:38:19.191Z,542.6
2023-03-31T00:39:21.031Z,542.9
2023-03-31T00:40:22.890Z,543.2
2023-03-31T00:41:24.834Z,543.3
2023-03-31T00:42:26.692Z,543.6
2023-03-31T00:43:28.640Z,543.6
2023-03-31T00:44:30.501Z,543.5
2023-03-31T00:45:32.771Z,543.8
2023-03-31T00:46:34.798Z,543.8
2023-03-31T00:47:36.702Z,543.7
2023-03-31T00:48:38.566Z,544.4
2023-03-31T00:49:40.484Z,543.9
2023-03-31T00:50:42.412Z,543.9
2023-03-31T00:51:44.371Z,543.4
2023-03-31T00:52:46.317Z,543.7
2023-03-31T00:53:48.157Z,543.8
2023-03-31T00:54:50.014Z,543.6
2023-03-31T00:55:51.867Z,543.5
2023-03-31T00:56:53.923Z,543.5
2023-03-31T00:57:55.866Z,543.4
2023-03-31T00:58:57.615Z,543.9
2023-03-31T00:59:59.669Z,544.3
2023-03-31T01:01:01.763Z,544.6
2023-03-31T01:02:03.685Z,544.4
2023-03-31T01:03:05.995Z,544.8
2023-03-31T01:04:08.244Z,545
2023-03-31T01:05:10.190Z,544.8
2023-03-31T01:06:12.109Z,545.1
2023-03-31T01:07:13.852Z,544.9
2023-03-31T01:08:15.711Z,544.9
2023-03-31T01:09:17.663Z,545.2
2023-03-31T01:10:19.503Z,545.3
2023-03-31T01:11:21.367Z,545.5
2023-03-31T01:12:23.409Z,545.6
2023-03-31T01:13:25.358Z,545.3
2023-03-31T01:14:27.125Z,545.4
2023-03-31T01:15:29.072Z,545.5
2023-03-31T01:16:30.962Z,545.7
2023-03-31T01:17:33.606Z,545.4
2023-03-31T01:18:36.095Z,545.2
2023-03-31T01:19:37.997Z,545
2023-03-31T01:20:39.808Z,545.3
2023-03-31T01:21:41.704Z,545
2023-03-31T01:22:43.557Z,545.1
2023-03-31T01:23:45.488Z,545.1
2023-03-31T01:24:47.369Z,545.1
2023-03-31T01:25:49.212Z,545.1
2023-03-31T01:26:51.063Z,545.3
2023-03-31T01:27:52.929Z,545.5
2023-03-31T01:28:54.876Z,545.5
2023-03-31T01:29:56.602Z,545.3
2023-03-31T01:30:58.696Z,545.3
2023-03-31T01:32:00.611Z,544.7
2023-03-31T01:33:02.985Z,544.5
2023-03-31T01:34:05.033Z,544.5
2023-03-31T01:35:06.876Z,544.6
2023-03-31T01:36:09.690Z,544.8
2023-03-31T01:37:11.512Z,544.7
2023-03-31T01:38:13.356Z,544.4
2023-03-31T01:39:15.207Z,544
2023-03-31T01:40:17.158Z,543.9
2023-03-31T01:41:19.247Z,543.4
2023-03-31T01:42:21.055Z,543.8
2023-03-31T01:43:22.903Z,543.9
2023-03-31T01:44:24.767Z,543.4
2023-03-31T01:45:26.706Z,542.8
2023-03-31T01:46:28.901Z,542.7
2023-03-31T01:47:30.948Z,543
2023-03-31T01:48:32.794Z,542.8
2023-03-31T01:49:34.637Z,542.6
2023-03-31T01:50:36.468Z,542.5
2023-03-31T01:51:38.253Z,542
2023-03-31T01:52:40.180Z,542
2023-03-31T01:53:42.061Z,542.2
2023-03-31T01:54:43.972Z,541.8
2023-03-31T01:55:45.830Z,542.3
2023-03-31T01:56:47.814Z,542.1
2023-03-31T01:57:49.752Z,542.2
2023-03-31T01:58:51.793Z,542
2023-03-31T01:59:53.564Z,542
2023-03-31T02:00:55.389Z,541.9
2023-03-31T02:01:57.354Z,542.3
2023-03-31T02:02:59.875Z,542.6
2023-03-31T02:04:02.172Z,542.6
2023-03-31T02:05:04.008Z,542.2
2023-03-31T02:06:06.593Z,542.6
2023-03-31T02:07:08.555Z,543
2023-03-31T02:08:10.492Z,542.7
2023-03-31T02:09:12.440Z,542.4
2023-03-31T02:10:14.400Z,542.1
2023-03-31T02:11:16.236Z,542.1
2023-03-31T02:12:18.097Z,542.2
2023-03-31T02:13:20.048Z,541.6
2023-03-31T02:14:21.911Z,541.4
2023-03-31T02:15:23.754Z,541.4
2023-03-31T02:16:25.704Z,541.8
2023-03-31T02:17:27.668Z,541.4
2023-03-31T02:18:29.704Z,541.6
2023-03-31T02:19:31.658Z,541.1
2023-03-31T02:20:33.439Z,541.1
2023-03-31T02:21:35.251Z,541
2023-03-31T02:22:37.137Z,540.5
2023-03-31T02:23:39.052Z,540.5
2023-03-31T02:24:41.004Z,540.4
2023-03-31T02:25:42.856Z,540.8
2023-03-31T02:26:44.711Z,539.6
2023-03-31T02:27:46.664Z,539.4
2023-03-31T02:28:49.604Z,539.3
2023-03-31T02:29:51.481Z,539
2023-03-31T02:30:53.238Z,539.3
2023-03-31T02:31:55.227Z,539.2
2023-03-31T02:32:57.268Z,539.1
2023-03-31T02:33:59.187Z,539.1
2023-03-31T02:35:01.171Z,538.7
2023-03-31T02:36:03.256Z,538.6
2023-03-31T02:37:05.182Z,538.6
2023-03-31T02:38:07.144Z,538.9
2023-03-31T02:39:09.055Z,538.8
2023-03-31T02:40:11.001Z,539
2023-03-31T02:41:12.767Z,539.1
2023-03-31T02:42:14.608Z,539
2023-03-31T02:43:16.453Z,538.9
2023-03-31T02:44:18.426Z,538.4
2023-03-31T02:45:20.269Z,538.4
2023-03-31T02:46:22.444Z,538.1
2023-03-31T02:47:24.539Z,537.9
2023-03-31T02:48:26.409Z,537.8
2023-03-31T02:49:28.388Z,538.5
2023-03-31T02:50:32.050Z,538.5
2023-03-31T02:51:35.159Z,538.8
2023-03-31T02:52:37.104Z,538.2
2023-03-31T02:53:38.987Z,538.1
2023-03-31T02:54:40.904Z,538.2
2023-03-31T02:55:42.853Z,538.2
2023-03-31T02:56:44.936Z,538
2023-03-31T02:57:46.767Z,538.7
2023-03-31T02:58:48.541Z,539.2
2023-03-31T02:59:50.282Z,539.5
2023-03-31T03:00:52.320Z,539.9
2023-03-31T03:01:54.263Z,540.1
2023-03-31T03:02:56.625Z,540
2023-03-31T03:03:58.664Z,540.1
2023-03-31T03:05:00.538Z,539.8
2023-03-31T03:06:06.335Z,539.1
2023-03-31T03:07:08.334Z,540.4
2023-03-31T03:08:10.195Z,540.8
2023-03-31T03:09:12.051Z,541.3
2023-03-31T03:10:13.993Z,541.5
2023-03-31T03:11:15.938Z,541.8
2023-03-31T03:12:17.780Z,541.8
2023-03-31T03:13:19.515Z,541.7
2023-03-31T03:14:21.492Z,541.9
2023-03-31T03:15:23.352Z,542.1
2023-03-31T03:16:25.511Z,541.9
2023-03-31T03:17:27.580Z,542.2
2023-03-31T03:18:29.598Z,542.2
2023-03-31T03:19:31.457Z,542.3
2023-03-31T03:20:33.297Z,542.2
2023-03-31T03:21:35.257Z,542.8
2023-03-31T03:22:37.321Z,542.9
2023-03-31T03:23:39.157Z,543.2
2023-03-31T03:24:41.075Z,543.3
2023-03-31T03:25:42.965Z,543.3
2023-03-31T03:26:44.769Z,543.8
2023-03-31T03:27:46.669Z,543.8
2023-03-31T03:28:48.411Z,543.3
2023-03-31T03:29:50.262Z,543.6
2023-03-31T03:30:52.254Z,543.2
2023-03-31T03:31:54.110Z,543
2023-03-31T03:32:56.261Z,543.5
2023-03-31T03:33:58.076Z,543.9
2023-03-31T03:35:00.018Z,543.8
2023-03-31T03:36:02.003Z,543.6
2023-03-31T03:37:03.837Z,543.9
2023-03-31T03:38:05.877Z,544.2
2023-03-31T03:39:07.774Z,544
2023-03-31T03:40:09.715Z,543.9
2023-03-31T03:41:11.636Z,543.7
2023-03-31T03:42:13.496Z,543.7
2023-03-31T03:43:15.439Z,543.7
2023-03-31T03:44:17.299Z,543.2
2023-03-31T03:45:19.141Z,543.3
2023-03-31T03:46:21.091Z,543.1
2023-03-31T03:47:23.124Z,542.8
2023-03-31T03:48:25.094Z,543.6
2023-03-31T03:49:26.944Z,543.7
2023-03-31T03:50:28.793Z,544.1
2023-03-31T03:51:30.764Z,544.3
2023-03-31T03:52:32.595Z,544.2
2023-03-31T03:53:34.553Z,544
2023-03-31T03:54:36.397Z,544.3
2023-03-31T03:55:38.274Z,544.8
2023-03-31T03:56:40.299Z,544.2
2023-03-31T03:57:42.163Z,544.5
2023-03-31T03:58:44.102Z,544.6
2023-03-31T03:59:46.073Z,544.7
2023-03-31T04:00:47.913Z,544.7
2023-03-31T04:01:51.311Z,544.9
2023-03-31T04:02:53.574Z,544.7
2023-03-31T04:03:55.514Z,544.6
2023-03-31T04:04:57.744Z,544.6
2023-03-31T04:05:59.618Z,544.5
2023-03-31T04:07:01.484Z,544.7
2023-03-31T04:08:03.311Z,544.5
2023-03-31T04:09:05.248Z,545
2023-03-31T04:10:07.438Z,545
2023-03-31T04:11:09.311Z,545.2
2023-03-31T04:12:11.132Z,545.1
2023-03-31T04:13:13.085Z,545.1
2023-03-31T04:14:14.922Z,545.3
2023-03-31T04:15:16.774Z,545
2023-03-31T04:16:18.999Z,544.4
2023-03-31T04:17:20.895Z,544.9
2023-03-31T04:18:22.871Z,544.6
2023-03-31T04:19:24.795Z,545
2023-03-31T04:20:26.646Z,544.6
2023-03-31T04:21:28.488Z,544.4
2023-03-31T04:22:30.359Z,544.3
2023-03-31T04:23:32.198Z,543.7
2023-03-31T04:24:34.356Z,543.8
2023-03-31T04:25:36.210Z,543.6
2023-03-31T04:26:38.178Z,544
2023-03-31T04:27:40.098Z,543.8
2023-03-31T04:28:42.050Z,544.1
2023-03-31T04:29:43.914Z,544.2
2023-03-31T04:30:45.864Z,543.7
2023-03-31T04:31:47.932Z,544.1
2023-03-31T04:32:49.795Z,543.9
2023-03-31T04:33:51.722Z,543.8
2023-03-31T04:34:53.646Z,544.1
2023-03-31T04:35:55.650Z,544
2023-03-31T04:36:57.566Z,544.2
2023-03-31T04:37:59.827Z,544
2023-03-31T04:39:01.988Z,543.9
2023-03-31T04:40:03.851Z,544
2023-03-31T04:41:05.795Z,544.1
2023-03-31T04:42:07.781Z,544.2
2023-03-31T04:43:09.713Z,543.8
2023-03-31T04:44:11.657Z,544.1
2023-03-31T04:45:13.506Z,544.1
2023-03-31T04:46:15.604Z,543.9
2023-03-31T04:47:17.515Z,543.9
2023-03-31T04:48:19.662Z,544.1
2023-03-31T04:49:21.510Z,544.3
2023-03-31T04:50:23.208Z,544.9
2023-03-31T04:51:25.014Z,544.6
2023-03-31T04:52:26.863Z,544.6
2023-03-31T04:53:28.810Z,544.7
2023-03-31T04:54:30.671Z,544.7
2023-03-31T04:55:32.424Z,544.4
2023-03-31T04:56:34.275Z,544.7
2023-03-31T04:57:36.246Z,544.6
2023-03-31T04:58:38.382Z,544.9
2023-03-31T04:59:40.221Z,544.7
2023-03-31T05:00:42.189Z,544.4
2023-03-31T05:01:44.262Z,544.5
2023-03-31T05:02:46.473Z,544.9
2023-03-31T05:03:48.836Z,545.2
2023-03-31T05:04:50.708Z,545.6
2023-03-31T05:05:52.649Z,545.9
2023-03-31T05:06:54.555Z,546
2023-03-31T05:07:56.356Z,546.2
2023-03-31T05:08:58.169Z,546.2
2023-03-31T05:10:00.179Z,546
2023-03-31T05:11:02.009Z,545.6
2023-03-31T05:12:03.969Z,545.7
2023-03-31T05:13:05.773Z,545.4
2023-03-31T05:14:07.869Z,545.4
2023-03-31T05:15:09.919Z,545.3
2023-03-31T05:16:12.144Z,545.3
2023-03-31T05:17:14.144Z,545.5
2023-03-31T05:18:15.985Z,545.8
2023-03-31T05:19:17.843Z,546.8
2023-03-31T05:20:19.686Z,546.9
2023-03-31T05:21:21.500Z,547
2023-03-31T05:22:23.527Z,547.5
2023-03-31T05:23:25.348Z,547.9
2023-03-31T05:24:27.091Z,547.9
2023-03-31T05:25:29.063Z,548.3
2023-03-31T05:26:30.785Z,548.4
2023-03-31T05:27:32.644Z,548.4
2023-03-31T05:28:34.512Z,548.2
2023-03-31T05:29:36.445Z,548.3
2023-03-31T05:30:38.292Z,548.5
2023-03-31T05:31:40.327Z,548.2
2023-03-31T05:32:42.351Z,548.7
2023-03-31T05:33:44.257Z,548.6
2023-03-31T05:34:46.100Z,548.3
2023-03-31T05:35:48.037Z,548.1
2023-03-31T05:36:50.020Z,547.9
2023-03-31T05:37:51.853Z,547.7
2023-03-31T05:38:53.540Z,548
2023-03-31T05:39:55.450Z,547.8
2023-03-31T05:40:57.265Z,548.4
2023-03-31T05:41:59.062Z,548.6
2023-03-31T05:43:00.906Z,548.9
2023-03-31T05:44:02.784Z,549
2023-03-31T05:45:08.670Z,549.3
2023-03-31T05:46:12.424Z,549
2023-03-31T05:47:14.257Z,548.9
2023-03-31T05:48:16.189Z,548.6
2023-03-31T05:49:17.875Z,548.7
2023-03-31T05:50:19.637Z,548.8
2023-03-31T05:51:21.441Z,548.9
2023-03-31T05:52:23.289Z,548.9
2023-03-31T05:53:25.239Z,549.2
2023-03-31T05:54:27.090Z,548.9
2023-03-31T05:55:28.955Z,548.6
2023-03-31T05:56:30.786Z,548.3
2023-03-31T05:57:33.148Z,548.5
2023-03-31T05:58:34.901Z,548.5
2023-03-31T05:59:37.095Z,548.1
2023-03-31T06:00:38.915Z,547.9
2023-03-31T06:01:41.157Z,547.9
2023-03-31T06:02:43.591Z,547.8
2023-03-31T06:03:45.829Z,547.6
2023-03-31T06:04:47.654Z,547.7
2023-03-31T06:05:49.601Z,547.2
2023-03-31T06:06:51.565Z,547.4
2023-03-31T06:07:53.300Z,547.2
2023-03-31T06:08:55.259Z,547.1
2023-03-31T06:09:57.109Z,546.9
2023-03-31T06:10:59.040Z,546.9
2023-03-31T06:12:01.116Z,547.2
2023-03-31T06:13:02.965Z,547.4
2023-03-31T06:14:04.815Z,547.5
2023-03-31T06:15:06.890Z,547.2
2023-03-31T06:16:09.027Z,547
2023-03-31T06:17:10.975Z,547.1
2023-03-31T06:18:12.826Z,546.9
2023-03-31T06:19:14.576Z,547.2
2023-03-31T06:20:29.018Z,547.2
2023-03-31T06:21:31.083Z,547.4
2023-03-31T06:22:32.930Z,547.8
2023-03-31T06:23:34.869Z,547.6
2023-03-31T06:24:36.722Z,547.8
2023-03-31T06:25:52.349Z,547.7
2023-03-31T06:26:54.671Z,547.7
2023-03-31T06:27:56.611Z,547.7
2023-03-31T06:28:58.450Z,548
2023-03-31T06:30:00.225Z,548.1
2023-03-31T06:31:02.091Z,547.9
2023-03-31T06:32:04.525Z,547.8
2023-03-31T06:33:06.647Z,547.5
2023-03-31T06:34:08.635Z,547.5
2023-03-31T06:35:10.485Z,547.5
2023-03-31T06:36:12.500Z,547.5
2023-03-31T06:37:14.482Z,547.2
2023-03-31T06:38:16.345Z,547.2
2023-03-31T06:39:18.192Z,547
2023-03-31T06:40:20.064Z,547.4
2023-03-31T06:41:22.279Z,547.2
2023-03-31T06:42:24.554Z,547.3
2023-03-31T06:43:26.410Z,547.3
2023-03-31T06:44:28.574Z,547.3
2023-03-31T06:45:30.412Z,547.2
2023-03-31T06:46:32.432Z,547.5
2023-03-31T06:47:34.450Z,547.4
2023-03-31T06:48:36.273Z,547.4
2023-03-31T06:49:38.084Z,547.3
2023-03-31T06:50:40.175Z,547.1
2023-03-31T06:51:42.145Z,547.2
2023-03-31T06:52:43.977Z,546.9
2023-03-31T06:53:46.022Z,546.8
2023-03-31T06:54:47.890Z,546.4
2023-03-31T06:55:49.844Z,546.8
2023-03-31T06:56:51.928Z,547.1
2023-03-31T06:57:53.666Z,547.2
2023-03-31T06:58:55.588Z,547.1
2023-03-31T06:59:57.432Z,547.2
2023-03-31T07:00:59.635Z,546.8
2023-03-31T07:02:01.941Z,547.1
2023-03-31T07:03:04.515Z,547.2
2023-03-31T07:04:06.434Z,547.5
2023-03-31T07:05:08.424Z,547.7
2023-03-31T07:06:10.282Z,547.7
2023-03-31T07:07:12.242Z,547.8
2023-03-31T07:08:14.083Z,548.1
2023-03-31T07:09:15.936Z,548.3
2023-03-31T07:10:17.788Z,548.2
2023-03-31T07:11:21.764Z,548.4
2023-03-31T07:12:23.587Z,548.6
2023-03-31T07:13:25.585Z,548.7
2023-03-31T07:14:27.945Z,549
2023-03-31T07:15:29.807Z,549.8
2023-03-31T07:16:31.982Z,550.4
2023-03-31T07:17:34.278Z,551.4
2023-03-31T07:18:36.376Z,551.6
2023-03-31T07:19:38.223Z,551.9
2023-03-31T07:20:40.064Z,551.7
2023-03-31T07:21:41.921Z,552
2023-03-31T07:22:43.768Z,552.2
2023-03-31T07:23:45.512Z,552
2023-03-31T07:24:47.362Z,552.3
2023-03-31T07:25:49.332Z,552.6
2023-03-31T07:26:51.184Z,552.8
2023-03-31T07:27:52.987Z,552.8
2023-03-31T07:28:54.977Z,552.9
2023-03-31T07:29:56.827Z,553.1
2023-03-31T07:30:58.686Z,553.1
2023-03-31T07:32:00.914Z,553.3
2023-03-31T07:33:03.341Z,553.3
2023-03-31T07:34:05.225Z,553.4
2023-03-31T07:35:07.135Z,553.2
2023-03-31T07:36:14.918Z,553.2
2023-03-31T07:37:16.604Z,552.5
2023-03-31T07:38:18.380Z,552.2
2023-03-31T07:39:20.129Z,552.2
2023-03-31T07:40:21.874Z,552.2
2023-03-31T07:41:23.831Z,552.2
2023-03-31T07:42:25.727Z,552.3
2023-03-31T07:43:27.536Z,552.7
2023-03-31T07:44:29.291Z,552.9
2023-03-31T07:45:31.136Z,553.2
2023-03-31T07:46:33.558Z,553.2
2023-03-31T07:47:35.581Z,553.5
2023-03-31T07:48:37.521Z,554
2023-03-31T07:49:39.473Z,554.2
2023-03-31T07:50:41.384Z,554.5
2023-03-31T07:51:43.361Z,554.8
2023-03-31T07:52:47.877Z,554.8
2023-03-31T07:53:49.815Z,554.8
2023-03-31T07:54:51.810Z,554.5
2023-03-31T07:55:53.591Z,554.4
2023-03-31T07:56:55.708Z,554.6
2023-03-31T07:57:57.626Z,554.6
2023-03-31T07:58:59.487Z,554.6
2023-03-31T08:00:01.429Z,554.4
2023-03-31T08:01:04.101Z,554.3
2023-03-31T08:02:06.776Z,554.5
2023-03-31T08:03:09.059Z,554.2
2023-03-31T08:04:13.301Z,554.8
2023-03-31T08:05:15.471Z,554.8
2023-03-31T08:06:17.959Z,554.7
2023-03-31T08:07:19.908Z,555.1
2023-03-31T08:08:21.873Z,555.6
2023-03-31T08:09:23.729Z,555.6
2023-03-31T08:10:25.692Z,555.8
2023-03-31T08:11:27.459Z,555.8
2023-03-31T08:12:29.212Z,555.7
2023-03-31T08:13:31.021Z,555.3
2023-03-31T08:14:42.296Z,555.9
2023-03-31T08:15:44.344Z,556.1
2023-03-31T08:16:46.570Z,556.8
2023-03-31T08:17:48.789Z,557
2023-03-31T08:18:50.708Z,557.2
2023-03-31T08:19:52.691Z,557.4
2023-03-31T08:20:54.411Z,557.4
2023-03-31T08:21:56.357Z,557.2
2023-03-31T08:22:58.265Z,557.4
2023-03-31T08:24:00.190Z,558
2023-03-31T08:25:02.127Z,557.9
2023-03-31T08:26:04.894Z,558.2
2023-03-31T08:27:13.054Z,558.2
2023-03-31T08:28:14.935Z,558
2023-03-31T08:29:16.792Z,557.8
2023-03-31T08:30:18.600Z,558.4
2023-03-31T08:31:20.616Z,557.9
2023-03-31T08:32:22.648Z,558.5
2023-03-31T08:33:24.487Z,558.2
2023-03-31T08:34:26.350Z,558.4
2023-03-31T08:35:28.227Z,558.8
2023-03-31T08:36:30.156Z,558.7
2023-03-31T08:37:32.107Z,559
2023-03-31T08:38:33.874Z,559
2023-03-31T08:39:35.634Z,559.5
2023-03-31T08:40:37.557Z,559.2
2023-03-31T08:41:39.509Z,558.9
2023-03-31T08:42:41.348Z,559.2
2023-03-31T08:43:43.309Z,559
2023-03-31T08:44:45.251Z,558.8
2023-03-31T08:45:47.412Z,558.5
2023-03-31T08:46:49.367Z,558.3
2023-03-31T08:47:51.550Z,558.9
2023-03-31T08:48:53.376Z,558.8
2023-03-31T08:49:55.229Z,558.8
2023-03-31T08:50:57.009Z,558.7
2023-03-31T08:51:58.927Z,558.4
2023-03-31T08:53:00.764Z,558.8
2023-03-31T08:54:02.617Z,559
2023-03-31T08:55:04.516Z,558.9
2023-03-31T08:56:07.026Z,559.5
2023-03-31T08:57:09.230Z,559.8
2023-03-31T08:58:11.044Z,560.2
2023-03-31T08:59:12.831Z,560.3
2023-03-31T09:00:14.641Z,561
2023-03-31T09:01:16.744Z,561
2023-03-31T09:02:19.729Z,561.4
2023-03-31T09:03:22.078Z,561.2
2023-03-31T09:04:24.171Z,561.5
2023-03-31T09:05:26.046Z,561.3
2023-03-31T09:06:27.917Z,562.1
2023-03-31T09:07:29.869Z,561.6
2023-03-31T09:08:31.705Z,561.8
2023-03-31T09:09:33.449Z,561.8
2023-03-31T09:10:35.213Z,562.1
2023-03-31T09:11:37.092Z,561.4
2023-03-31T09:12:39.011Z,561.2
2023-03-31T09:13:40.843Z,561
2023-03-31T09:14:42.595Z,560.9
2023-03-31T09:15:44.447Z,561
2023-03-31T09:16:46.444Z,561.3
2023-03-31T09:17:48.866Z,561.6
2023-03-31T09:18:50.724Z,561.2
2023-03-31T09:19:52.620Z,560.6
2023-03-31T09:20:54.419Z,560.3
2023-03-31T09:21:56.278Z,560.5
2023-03-31T09:22:58.215Z,560.6
2023-03-31T09:24:00.267Z,561
2023-03-31T09:25:02.320Z,561.5
2023-03-31T09:26:05.045Z,560.9
2023-03-31T09:27:07.149Z,560.4
2023-03-31T09:28:09.219Z,560.3
2023-03-31T09:29:11.062Z,560.2
2023-03-31T09:30:12.783Z,560.2
2023-03-31T09:31:14.795Z,560.3
2023-03-31T09:32:16.702Z,560.6
2023-03-31T09:33:18.666Z,560.4
2023-03-31T09:34:20.522Z,560.3
2023-03-31T09:35:22.856Z,560.1
2023-03-31T09:36:25.223Z,560.6
2023-03-31T09:37:27.144Z,560.5
2023-03-31T09:38:28.939Z,560.6
2023-03-31T09:39:30.783Z,560.6
2023-03-31T09:40:32.644Z,560.3
2023-03-31T09:41:35.006Z,560.2
2023-03-31T09:42:36.849Z,559.9
2023-03-31T09:43:38.707Z,560.7
2023-03-31T09:44:40.445Z,560.4
2023-03-31T09:45:42.482Z,560.3
2023-03-31T09:46:44.613Z,560.7
2023-03-31T09:47:46.755Z,560.6
2023-03-31T09:48:48.772Z,561.1
2023-03-31T09:49:55.157Z,561.3
2023-03-31T09:50:56.979Z,561.2
2023-03-31T09:51:58.762Z,561.4
2023-03-31T09:53:00.821Z,561.6
2023-03-31T09:54:02.732Z,561.2
2023-03-31T09:55:04.508Z,561.7
2023-03-31T09:56:06.995Z,561.2
2023-03-31T09:57:08.991Z,561.2
2023-03-31T09:58:10.863Z,561.8
2023-03-31T09:59:12.697Z,561.6
2023-03-31T10:00:14.681Z,562.7
2023-03-31T10:01:16.711Z,562.5
2023-03-31T10:02:18.552Z,562.6
2023-03-31T10:03:20.509Z,561.8
2023-03-31T10:04:22.816Z,562.6
2023-03-31T10:05:24.719Z,562.8
2023-03-31T10:06:26.573Z,562.3
2023-03-31T10:07:28.320Z,563.1
2023-03-31T10:08:30.220Z,562.9
2023-03-31T10:09:32.126Z,563.2
2023-03-31T10:10:33.878Z,563.6
2023-03-31T10:11:35.634Z,564.6
2023-03-31T10:12:37.569Z,564.8
2023-03-31T10:13:39.418Z,564.1
2023-03-31T10:14:41.267Z,564.5
2023-03-31T10:15:43.252Z,564
2023-03-31T10:16:45.196Z,564
2023-03-31T10:17:56.374Z,564.2
2023-03-31T10:18:58.289Z,564.3
2023-03-31T10:20:00.245Z,564.5
2023-03-31T10:21:02.088Z,564.5
2023-03-31T10:22:03.840Z,564.4
2023-03-31T10:23:05.793Z,565
2023-03-31T10:24:07.792Z,565
2023-03-31T10:25:09.700Z,565.1
2023-03-31T10:26:11.470Z,564.8
2023-03-31T10:27:13.374Z,564.6
2023-03-31T10:28:15.267Z,565.2
2023-03-31T10:29:17.204Z,565.9
2023-03-31T10:30:19.360Z,565.8
2023-03-31T10:31:21.367Z,565.5
2023-03-31T10:32:23.281Z,565.3
2023-03-31T10:33:25.483Z,565.4
2023-03-31T10:34:27.308Z,566.4
2023-03-31T10:35:29.219Z,566.3
2023-03-31T10:36:31.081Z,566.7
2023-03-31T10:37:32.856Z,566.5
2023-03-31T10:38:34.675Z,565.8
2023-03-31T10:39:36.655Z,566.3
2023-03-31T10:40:38.728Z,566.4
2023-03-31T10:41:40.717Z,566.8
2023-03-31T10:42:42.467Z,566.9
2023-03-31T10:43:44.357Z,566.8
2023-03-31T10:44:46.242Z,566.1
2023-03-31T10:45:48.034Z,566.8
2023-03-31T10:46:50.263Z,567.4
2023-03-31T10:47:52.285Z,567.2
2023-03-31T10:48:54.166Z,567.4
2023-03-31T10:49:58.800Z,567.1
2023-03-31T10:51:00.703Z,566.7
2023-03-31T10:52:02.414Z,566.7
2023-03-31T10:53:04.268Z,566.9
2023-03-31T10:54:06.114Z,567
2023-03-31T10:55:08.000Z,566.9
2023-03-31T10:56:09.909Z,567.3
2023-03-31T10:57:11.901Z,567.9
2023-03-31T10:58:13.714Z,568
2023-03-31T10:59:15.596Z,567.6
2023-03-31T11:00:17.631Z,567.9
2023-03-31T11:01:19.612Z,567.4
2023-03-31T11:02:21.694Z,567.6
2023-03-31T11:03:23.913Z,567.8
2023-03-31T11:04:25.740Z,567.9
2023-03-31T11:05:27.577Z,568.3
2023-03-31T11:06:29.434Z,568.2
2023-03-31T11:07:31.394Z,568.5
2023-03-31T11:08:33.218Z,568.4
2023-03-31T11:09:35.189Z,568.3
2023-03-31T11:10:37.083Z,568.3
2023-03-31T11:11:38.993Z,568.2
2023-03-31T11:12:40.734Z,568.6
2023-03-31T11:13:42.629Z,568.7
2023-03-31T11:14:44.657Z,568.8
2023-03-31T11:15:46.467Z,568.8
2023-03-31T11:16:48.480Z,569.1
2023-03-31T11:17:50.391Z,569.2
2023-03-31T11:18:52.360Z,569.8
2023-03-31T11:19:54.192Z,569.8
2023-03-31T11:20:56.063Z,569.8
2023-03-31T11:21:57.900Z,570.1
2023-03-31T11:22:59.747Z,570
2023-03-31T11:24:01.818Z,570
2023-03-31T11:25:03.661Z,570.2
2023-03-31T11:26:05.442Z,570.3
2023-03-31T11:27:07.442Z,570.3
2023-03-31T11:28:09.382Z,570.5
2023-03-31T11:29:11.260Z,570.8
2023-03-31T11:30:13.478Z,571.3
2023-03-31T11:31:15.265Z,571.6
2023-03-31T11:32:18.319Z,571.4
2023-03-31T11:33:20.204Z,571.3
2023-03-31T11:34:22.037Z,572
2023-03-31T11:35:24.000Z,572.4
2023-03-31T11:36:25.852Z,572.2
2023-03-31T11:37:27.693Z,572.3
2023-03-31T11:38:29.655Z,572.7
2023-03-31T11:39:31.604Z,572.3
2023-03-31T11:40:33.252Z,572.5
2023-03-31T11:41:35.116Z,572.7
2023-03-31T11:42:36.950Z,572.9
2023-03-31T11:43:38.806Z,573
2023-03-31T11:44:40.747Z,573.3
2023-03-31T11:45:42.848Z,573.2
2023-03-31T11:46:45.130Z,573.2
2023-03-31T11:47:47.160Z,573.7
2023-03-31T11:48:48.971Z,573.7
2023-03-31T11:49:50.914Z,573.6
2023-03-31T11:50:52.784Z,573.9
2023-03-31T11:51:54.621Z,574
2023-03-31T11:52:56.476Z,573.4
2023-03-31T11:53:58.319Z,573.8
2023-03-31T11:55:03.861Z,574.5
2023-03-31T11:56:06.665Z,574
2023-03-31T11:57:08.705Z,574.2
2023-03-31T11:58:10.735Z,574.1
2023-03-31T11:59:12.626Z,574.7
2023-03-31T12:00:14.820Z,574.8
2023-03-31T12:01:17.060Z,575
2023-03-31T12:02:18.855Z,575.4
2023-03-31T12:03:21.300Z,575.4
2023-03-31T12:04:23.277Z,575.7
2023-03-31T12:05:25.453Z,575.8
2023-03-31T12:06:27.518Z,576.1
2023-03-31T12:07:29.224Z,576.1
2023-03-31T12:08:30.975Z,576
2023-03-31T12:09:32.800Z,576.4
2023-03-31T12:10:34.678Z,576.5
2023-03-31T12:11:36.422Z,576.7
2023-03-31T12:12:38.308Z,576.9
2023-03-31T12:13:40.251Z,577.2
2023-03-31T12:14:42.364Z,577.4
2023-03-31T12:15:44.332Z,577.1
2023-03-31T12:16:46.208Z,577.3
2023-03-31T12:17:48.153Z,577.5
2023-03-31T12:18:49.906Z,577.5
2023-03-31T12:19:51.742Z,577.2
2023-03-31T12:20:53.768Z,577.3
2023-03-31T12:21:55.871Z,577.3
2023-03-31T12:22:58.461Z,577.2
2023-03-31T12:24:00.872Z,576.9
2023-03-31T12:25:02.963Z,577.1
2023-03-31T12:26:05.791Z,577.2
2023-03-31T12:27:07.880Z,577.5
2023-03-31T12:28:09.813Z,577.5
2023-03-31T12:29:11.671Z,577.4
2023-03-31T12:30:13.819Z,577.2
2023-03-31T12:31:15.823Z,577.2
2023-03-31T12:32:17.736Z,577.6
2023-03-31T12:33:19.496Z,577.5
2023-03-31T12:34:21.332Z,577.8
2023-03-31T12:35:23.380Z,577.8
2023-03-31T12:36:25.302Z,577.9
2023-03-31T12:37:26.998Z,577.9
2023-03-31T12:38:28.829Z,577.8
2023-03-31T12:39:30.677Z,578.2
2023-03-31T12:40:32.533Z,578.1
2023-03-31T12:41:34.386Z,578.2
2023-03-31T12:42:36.238Z,578.5
2023-03-31T12:43:38.218Z,578.7
2023-03-31T12:44:40.175Z,578.8
2023-03-31T12:45:41.894Z,578.4
2023-03-31T12:46:44.076Z,578.2
2023-03-31T12:47:46.231Z,578.6
2023-03-31T12:48:47.973Z,578.9
2023-03-31T12:49:49.631Z,579.2
2023-03-31T12:50:51.558Z,579.6
2023-03-31T12:51:53.319Z,580.2
2023-03-31T12:52:55.095Z,580.5
2023-03-31T12:54:00.910Z,580.5
2023-03-31T12:55:02.695Z,580.7
2023-03-31T12:56:05.396Z,581.3
2023-03-31T12:57:07.480Z,581.4
2023-03-31T12:58:09.303Z,581.7
2023-03-31T12:59:11.067Z,582
2023-03-31T13:00:13.212Z,581.8
2023-03-31T13:01:15.603Z,581.8
2023-03-31T13:02:17.725Z,582.3
2023-03-31T13:03:19.878Z,582.4
2023-03-31T13:04:21.744Z,582.5
2023-03-31T13:05:23.628Z,582.6
2023-03-31T13:06:25.319Z,582.7
2023-03-31T13:07:29.946Z,582.8
2023-03-31T13:08:31.691Z,583
2023-03-31T13:09:33.548Z,583.7
2023-03-31T13:10:35.641Z,583.4
2023-03-31T13:11:37.668Z,583.8
2023-03-31T13:12:39.515Z,583.9
2023-03-31T13:14:01.233Z,584
2023-03-31T13:15:03.112Z,585
2023-03-31T13:16:05.066Z,584.9
2023-03-31T13:17:07.346Z,585
2023-03-31T13:18:09.561Z,585.2
2023-03-31T13:19:11.605Z,585.6
2023-03-31T13:20:13.686Z,585.7
2023-03-31T13:21:15.502Z,586
2023-03-31T13:22:17.251Z,586.3
2023-03-31T13:23:19.156Z,587
2023-03-31T13:24:20.956Z,587.5